Time;durP1;ratioP1;P1;durP2;ratioP2;P2;SDS_P1;SDS_P2;PMS_P1;PMS_P2;Temp;Humidity;BMP_temperature;BMP_pressure;BME280_temperature;BME280_humidity;BME280_pressure;Samples;Min_cycle;Max_cycle;Signal;HPM_P1;HPM_P2
2022/01/25 00:15:03;;;;;;;21.27;18.10;;;7.80;71.00;;;;;;5047176;28;20041;-50
2022/01/25 00:24:52;;;;;;;23.67;17.95;;;7.80;71.20;;;;;;5052962;28;20048;-51
2022/01/25 00:32:21;;;;;;;25.30;18.77;;;7.80;71.20;;;;;;5059177;28;20041;-51
2022/01/25 00:34:48;;;;;;;24.63;19.27;;;7.80;71.20;;;;;;5051912;28;20071;-50
2022/01/25 00:37:16;;;;;;;23.90;18.92;;;7.80;71.20;;;;;;5058655;28;20041;-52
2022/01/25 00:39:44;;;;;;;23.83;18.13;;;7.80;71.30;;;;;;5067990;28;20396;-52
2022/01/25 00:42:11;;;;;;;26.00;20.25;;;7.80;71.30;;;;;;5067128;28;20045;-56
2022/01/25 00:44:40;;;;;;;26.38;21.25;;;7.80;71.30;;;;;;5045534;28;20054;-50
2022/01/25 00:47:07;;;;;;;26.77;20.15;;;7.80;71.30;;;;;;5043672;28;20115;-49
2022/01/25 00:49:38;;;;;;;25.80;20.23;;;7.80;71.30;;;;;;5056235;28;20041;-51
2022/01/25 00:52:25;;;;;;;22.30;18.08;;;7.80;71.30;;;;;;5051920;28;20045;-51
2022/01/25 00:54:57;;;;;;;25.80;20.52;;;7.80;71.30;;;;;;5027968;28;20071;-50
2022/01/25 00:57:25;;;;;;;26.85;19.50;;;7.80;71.20;;;;;;5052867;28;20816;-50
2022/01/25 00:59:52;;;;;;;28.35;20.63;;;7.80;71.20;;;;;;5047441;28;20053;-51
2022/01/25 01:02:18;;;;;;;29.33;21.27;;;7.80;71.20;;;;;;5046547;28;20048;-51
2022/01/25 01:04:50;;;;;;;26.90;19.88;;;7.80;71.20;;;;;;5055711;28;20153;-54
2022/01/25 01:07:17;;;;;;;26.25;20.65;;;7.80;71.10;;;;;;5046690;28;20045;-54
2022/01/25 01:09:47;;;;;;;25.30;20.13;;;7.80;71.20;;;;;;5046636;28;20063;-49
2022/01/25 01:12:46;;;;;;;26.30;21.33;;;7.80;71.20;;;;;;5045657;28;20041;-51
2022/01/25 01:35:37;;;;;;;26.02;19.73;;;7.90;71.00;;;;;;5061528;28;20653;-50
2022/01/25 01:48:27;;;;;;;27.30;20.58;;;7.80;71.00;;;;;;5050012;28;20040;-52
2022/01/25 01:51:00;;;;;;;27.65;20.05;;;7.80;71.00;;;;;;5060748;28;20102;-50
2022/01/25 01:53:27;;;;;;;29.83;22.05;;;7.80;70.90;;;;;;5064132;28;20562;-50
2022/01/25 01:55:54;;;;;;;29.23;21.95;;;7.80;70.80;;;;;;5070005;28;20068;-50
2022/01/25 01:58:21;;;;;;;30.10;20.38;;;7.80;70.90;;;;;;5062420;28;20055;-53
2022/01/25 02:00:49;;;;;;;28.58;20.67;;;7.90;70.90;;;;;;5063041;28;20049;-50
2022/01/25 02:03:17;;;;;;;27.63;19.42;;;7.80;70.80;;;;;;5061870;28;20048;-51
2022/01/25 02:05:44;;;;;;;26.55;19.67;;;7.80;70.80;;;;;;5055737;28;20048;-51
2022/01/25 02:08:13;;;;;;;27.58;18.88;;;7.80;70.80;;;;;;5052689;28;20051;-52
2022/01/25 02:10:40;;;;;;;32.60;21.63;;;7.80;70.90;;;;;;5059195;28;20073;-53
2022/01/25 02:13:09;;;;;;;29.75;20.63;;;7.80;70.90;;;;;;5070332;28;20052;-51
2022/01/25 02:15:38;;;;;;;28.27;20.98;;;7.80;70.80;;;;;;5055547;28;20111;-50
2022/01/25 02:23:43;;;;;;;27.10;20.48;;;7.90;71.00;;;;;;5055720;28;20408;-50
2022/01/25 02:26:12;;;;;;;27.77;20.48;;;7.90;71.10;;;;;;5051817;28;20048;-53
2022/01/25 02:28:41;;;;;;;28.60;22.40;;;7.90;71.10;;;;;;5057709;28;20049;-51
2022/01/25 02:31:13;;;;;;;30.58;21.15;;;7.90;71.10;;;;;;5043305;28;20063;-51
2022/01/25 02:33:41;;;;;;;34.20;23.42;;;7.80;71.10;;;;;;5062626;28;20048;-53
2022/01/25 02:36:15;;;;;;;30.27;23.30;;;7.80;71.00;;;;;;5061046;28;20048;-53
2022/01/25 02:38:42;;;;;;;32.90;22.20;;;7.90;71.10;;;;;;5061998;28;20646;-50
2022/01/25 02:41:08;;;;;;;31.05;20.70;;;7.90;71.10;;;;;;5069507;28;20056;-50
2022/01/25 02:43:35;;;;;;;29.83;23.52;;;7.80;71.10;;;;;;5050712;28;20049;-50
2022/01/25 02:48:58;;;;;;;29.77;21.52;;;7.90;71.30;;;;;;5056030;28;20111;-49
2022/01/25 02:51:34;;;;;;;32.53;22.63;;;7.90;71.30;;;;;;5029652;28;20065;-50
2022/01/25 02:54:03;;;;;;;30.92;22.13;;;7.90;71.30;;;;;;5042655;28;20071;-53
2022/01/25 02:56:31;;;;;;;32.70;22.98;;;7.90;71.20;;;;;;5058063;28;20387;-50
2022/01/25 02:58:58;;;;;;;30.42;22.10;;;7.90;71.20;;;;;;5067133;28;20044;-51
2022/01/25 03:01:25;;;;;;;33.40;21.17;;;7.90;71.10;;;;;;5064800;28;20668;-49
2022/01/25 03:03:52;;;;;;;27.67;18.60;;;7.80;71.10;;;;;;5048269;28;20118;-51
2022/01/25 03:06:21;;;;;;;28.50;19.42;;;7.80;71.10;;;;;;5051663;28;20048;-53
2022/01/25 03:08:50;;;;;;;28.58;20.02;;;7.80;71.00;;;;;;5064927;28;20106;-52
2022/01/25 03:11:19;;;;;;;27.92;19.95;;;7.90;71.00;;;;;;5059585;28;20045;-50
2022/01/25 03:13:52;;;;;;;28.25;20.27;;;7.90;71.00;;;;;;5061516;28;20553;-49
2022/01/25 03:16:36;;;;;;;27.98;20.48;;;7.90;70.90;;;;;;5054518;28;20053;-50
2022/01/25 03:19:30;;;;;;;26.75;19.13;;;7.90;70.90;;;;;;5058500;28;20049;-51
2022/01/25 03:21:58;;;;;;;27.95;19.67;;;7.80;70.90;;;;;;5061574;28;20037;-53
2022/01/25 03:24:25;;;;;;;25.98;18.75;;;7.90;70.80;;;;;;5057281;28;20045;-50
2022/01/25 03:26:52;;;;;;;25.88;18.50;;;7.80;70.60;;;;;;5059820;28;20079;-51
2022/01/25 03:29:19;;;;;;;21.33;16.02;;;7.90;70.50;;;;;;5061938;28;20045;-49
2022/01/25 03:31:46;;;;;;;24.45;18.00;;;7.80;70.50;;;;;;5047209;28;20103;-50
2022/01/25 03:34:13;;;;;;;29.83;19.70;;;7.90;70.50;;;;;;5048089;28;20499;-52
2022/01/25 03:36:40;;;;;;;27.02;19.70;;;7.90;70.50;;;;;;5047298;28;20045;-49
2022/01/25 03:39:07;;;;;;;28.95;19.45;;;7.90;70.50;;;;;;5056739;28;20705;-49
2022/01/25 03:41:35;;;;;;;25.83;19.58;;;7.90;70.50;;;;;;5050012;28;20049;-50
2022/01/25 03:44:02;;;;;;;27.98;19.85;;;7.90;70.60;;;;;;5058176;28;20048;-51
2022/01/25 03:51:50;;;;;;;29.17;19.10;;;7.80;70.60;;;;;;5048686;28;20053;-50
2022/01/25 03:54:18;;;;;;;25.70;19.50;;;7.90;70.70;;;;;;5056206;28;20610;-52
2022/01/25 03:56:46;;;;;;;27.73;20.48;;;7.90;70.70;;;;;;5048203;28;20463;-50
2022/01/25 03:59:13;;;;;;;27.42;19.83;;;7.90;70.70;;;;;;5042191;28;20034;-49
2022/01/25 04:01:40;;;;;;;25.67;18.10;;;7.90;70.70;;;;;;5056400;28;20057;-54
2022/01/25 04:04:11;;;;;;;25.27;18.45;;;7.90;70.60;;;;;;5059620;28;20045;-50
2022/01/25 04:06:39;;;;;;;24.33;17.67;;;7.80;70.50;;;;;;5056260;28;20114;-52
2022/01/25 04:09:08;;;;;;;26.10;17.85;;;7.90;70.40;;;;;;5059030;28;20033;-50
2022/01/25 04:11:36;;;;;;;25.00;19.35;;;7.90;70.40;;;;;;5057644;28;20098;-50
2022/01/25 04:14:04;;;;;;;29.05;19.58;;;7.90;70.40;;;;;;5060175;28;20404;-50
2022/01/25 04:16:36;;;;;;;29.05;20.40;;;7.80;70.40;;;;;;5051088;28;20095;-51
2022/01/25 04:19:14;;;;;;;28.95;19.92;;;7.90;70.50;;;;;;5045947;28;20069;-49
2022/01/25 04:24:40;;;;;;;27.85;19.10;;;7.80;70.50;;;;;;5058480;28;20056;-53
2022/01/25 04:24:43;;;;;;;33.63;21.02;;;7.90;70.50;;;;;;5051726;28;20060;-51
2022/01/25 04:27:10;;;;;;;31.48;22.08;;;7.90;70.50;;;;;;5061220;28;20041;-51
2022/01/25 04:29:37;;;;;;;28.50;20.27;;;7.90;70.50;;;;;;5057823;28;20068;-51
2022/01/25 04:32:06;;;;;;;29.98;21.77;;;7.90;70.50;;;;;;5058958;28;20049;-53
2022/01/25 04:53:44;;;;;;;26.25;18.33;;;7.80;70.00;;;;;;5061139;28;20503;-53
2022/01/25 04:56:22;;;;;;;25.42;17.98;;;7.80;69.90;;;;;;5053443;28;20032;-50
2022/01/25 04:59:04;;;;;;;30.15;19.88;;;7.80;70.00;;;;;;5056986;28;20056;-53
2022/01/25 05:01:31;;;;;;;30.23;19.75;;;7.80;70.10;;;;;;5062174;28;20053;-51
2022/01/25 05:04:06;;;;;;;27.45;19.77;;;7.80;70.10;;;;;;5054141;28;20131;-52
2022/01/25 05:06:33;;;;;;;31.27;19.63;;;7.80;70.20;;;;;;5044116;28;20099;-54
2022/01/25 05:09:09;;;;;;;26.95;20.85;;;7.80;70.20;;;;;;5057005;28;20051;-49
2022/01/25 05:11:43;;;;;;;28.27;19.50;;;7.80;70.20;;;;;;5051646;28;20040;-55
2022/01/25 05:14:24;;;;;;;28.73;19.83;;;7.80;70.20;;;;;;5055871;28;20083;-52
2022/01/25 05:16:57;;;;;;;26.73;18.92;;;7.80;70.00;;;;;;5053796;28;20048;-52
2022/01/25 05:22:23;;;;;;;22.75;17.15;;;7.80;69.90;;;;;;5067479;28;20059;-52
2022/01/25 05:24:52;;;;;;;22.55;16.10;;;7.80;69.80;;;;;;5053187;28;20060;-53
2022/01/25 05:27:26;;;;;;;22.35;16.95;;;7.80;69.70;;;;;;5051347;28;20550;-50
2022/01/25 05:29:53;;;;;;;22.35;15.85;;;7.80;69.60;;;;;;5044751;28;20041;-54
2022/01/25 05:32:20;;;;;;;26.88;18.00;;;7.80;69.70;;;;;;5045410;28;20136;-50
2022/01/25 05:34:47;;;;;;;23.67;17.58;;;7.80;69.60;;;;;;5044107;28;20048;-55
2022/01/25 05:37:14;;;;;;;26.38;17.08;;;7.80;69.70;;;;;;5048132;28;20045;-50
2022/01/25 05:39:41;;;;;;;24.35;18.55;;;7.70;69.60;;;;;;5045556;28;20049;-52
2022/01/25 05:44:54;;;;;;;24.20;15.57;;;7.80;69.50;;;;;;5056514;28;20044;-51
2022/01/25 05:47:31;;;;;;;22.77;16.40;;;7.70;69.40;;;;;;5047322;28;20551;-53
2022/01/25 05:49:59;;;;;;;23.60;16.90;;;7.70;69.40;;;;;;5041754;28;20038;-49
2022/01/25 05:52:27;;;;;;;25.60;17.67;;;7.70;69.50;;;;;;5053591;28;20041;-50
2022/01/25 05:54:56;;;;;;;24.52;17.92;;;7.70;69.50;;;;;;5058671;28;20086;-49
2022/01/25 05:57:23;;;;;;;26.05;18.65;;;7.80;69.60;;;;;;5059121;28;20079;-50
2022/01/25 05:59:50;;;;;;;22.73;16.83;;;7.70;69.40;;;;;;5065590;28;20067;-50
2022/01/25 06:02:19;;;;;;;28.02;17.05;;;7.70;69.30;;;;;;5051647;28;20040;-53
2022/01/25 06:04:46;;;;;;;22.65;15.82;;;7.70;69.30;;;;;;5060004;28;20128;-55
2022/01/25 06:07:14;;;;;;;22.85;16.85;;;7.70;69.30;;;;;;5062091;28;20055;-51
2022/01/25 06:09:41;;;;;;;24.50;17.70;;;7.70;69.30;;;;;;5035666;28;20104;-53
2022/01/25 06:12:10;;;;;;;24.70;17.83;;;7.70;69.40;;;;;;5050395;28;20094;-52
2022/01/25 06:14:38;;;;;;;25.70;18.73;;;7.70;69.50;;;;;;5057470;28;20055;-50
2022/01/25 06:17:04;;;;;;;32.60;21.83;;;7.70;69.60;;;;;;5068236;28;20048;-50
2022/01/25 06:19:32;;;;;;;27.75;19.23;;;7.70;69.60;;;;;;5058844;28;20059;-55
2022/01/25 06:21:59;;;;;;;27.95;20.90;;;7.70;69.60;;;;;;5062182;28;20045;-52
2022/01/25 06:24:25;;;;;;;24.58;18.10;;;7.70;69.60;;;;;;5050547;28;20056;-50
2022/01/25 06:26:52;;;;;;;25.92;18.33;;;7.70;69.50;;;;;;5060031;28;20467;-50
2022/01/25 06:29:19;;;;;;;23.83;17.50;;;7.70;69.50;;;;;;5060432;28;20065;-51
2022/01/25 06:31:47;;;;;;;24.67;16.45;;;7.70;69.40;;;;;;5050312;28;20076;-53
2022/01/25 06:34:16;;;;;;;24.20;17.88;;;7.70;69.50;;;;;;5049148;28;20040;-60
2022/01/25 06:36:42;;;;;;;27.63;17.77;;;7.70;69.50;;;;;;5048591;28;20103;-60
2022/01/25 06:39:09;;;;;;;27.48;18.92;;;7.70;69.50;;;;;;5046100;28;20162;-58
2022/01/25 06:41:37;;;;;;;27.50;18.15;;;7.70;69.50;;;;;;5056362;28;20107;-61
2022/01/25 06:44:05;;;;;;;29.58;18.02;;;7.70;69.50;;;;;;5047207;28;20108;-60
2022/01/25 06:46:32;;;;;;;28.00;19.55;;;7.80;69.60;;;;;;5060116;28;20561;-60
2022/01/25 06:48:59;;;;;;;28.42;19.38;;;7.80;69.60;;;;;;5052558;28;20571;-60
2022/01/25 06:51:28;;;;;;;30.80;18.40;;;7.70;69.60;;;;;;5054607;28;20459;-60
2022/01/25 06:53:55;;;;;;;32.20;22.00;;;7.70;69.60;;;;;;5066226;28;20106;-60
2022/01/25 06:56:22;;;;;;;28.75;19.75;;;7.80;69.50;;;;;;5050990;28;20201;-60
2022/01/25 06:58:49;;;;;;;25.40;18.83;;;7.70;69.40;;;;;;5058016;28;20045;-60
2022/01/25 07:01:17;;;;;;;27.90;19.60;;;7.70;69.40;;;;;;5051726;28;20459;-61
2022/01/25 07:03:45;;;;;;;26.70;17.23;;;7.80;69.60;;;;;;5057309;28;20056;-59
2022/01/25 07:06:12;;;;;;;27.70;18.02;;;7.80;69.50;;;;;;5059118;28;20052;-61
2022/01/25 07:08:39;;;;;;;24.90;16.90;;;7.80;69.50;;;;;;5054012;28;20045;-60
2022/01/25 07:11:06;;;;;;;31.35;19.88;;;7.70;69.40;;;;;;5056748;28;20041;-60
2022/01/25 07:13:33;;;;;;;30.55;19.15;;;7.70;69.40;;;;;;5055083;28;20040;-60
2022/01/25 07:15:59;;;;;;;29.85;20.42;;;7.70;69.40;;;;;;5055877;28;20385;-60
2022/01/25 07:18:26;;;;;;;31.20;20.38;;;7.80;69.50;;;;;;5048192;28;20084;-59
2022/01/25 07:20:53;;;;;;;28.13;18.95;;;7.80;69.50;;;;;;5054944;28;20053;-60
2022/01/25 07:23:20;;;;;;;28.20;19.77;;;7.80;69.60;;;;;;5053096;28;20048;-60
2022/01/25 07:25:47;;;;;;;29.45;21.42;;;7.70;69.60;;;;;;5051268;28;20037;-60
2022/01/25 07:28:14;;;;;;;29.40;21.42;;;7.80;69.60;;;;;;5054189;28;20044;-60
2022/01/25 07:30:41;;;;;;;31.90;20.90;;;7.80;69.70;;;;;;5043061;28;20045;-60
2022/01/25 07:33:11;;;;;;;26.27;19.38;;;7.70;69.60;;;;;;5049894;28;20055;-60
2022/01/25 07:35:42;;;;;;;28.95;20.00;;;7.80;69.60;;;;;;5051720;28;20155;-59
2022/01/25 07:38:16;;;;;;;29.42;20.75;;;7.80;69.50;;;;;;5056590;28;20072;-60
2022/01/25 07:40:44;;;;;;;24.33;17.95;;;7.80;69.50;;;;;;5049101;28;20155;-60
2022/01/25 07:43:13;;;;;;;25.02;17.52;;;7.80;69.30;;;;;;5045658;28;20476;-59
2022/01/25 07:45:42;;;;;;;26.92;19.00;;;7.80;69.20;;;;;;5049335;28;20119;-60
2022/01/25 07:48:11;;;;;;;25.38;18.45;;;7.70;69.20;;;;;;5056392;28;20057;-60
2022/01/25 07:50:38;;;;;;;27.35;18.73;;;7.80;69.30;;;;;;5063080;28;20041;-60
2022/01/25 07:53:05;;;;;;;27.75;19.30;;;7.80;69.30;;;;;;5062394;28;20100;-60
2022/01/25 07:55:32;;;;;;;29.33;19.80;;;7.70;69.20;;;;;;5043657;28;20049;-59
2022/01/25 07:57:59;;;;;;;28.20;20.15;;;7.80;69.90;;;;;;5056549;28;20102;-60
2022/01/25 08:00:26;;;;;;;27.08;20.17;;;7.80;69.20;;;;;;5053754;28;20045;-60
2022/01/25 08:02:53;;;;;;;32.63;21.02;;;7.80;69.20;;;;;;5058175;28;20702;-60
2022/01/25 08:05:26;;;;;;;;;;;7.80;69.90;;;;;;5047178;28;20457;-60
2022/01/25 08:07:53;;;;;;;27.67;17.98;;;7.80;69.10;;;;;;5056814;28;19924;-60
2022/01/25 08:10:25;;;;;;;26.75;18.25;;;7.80;69.20;;;;;;5067519;28;20508;-60
2022/01/25 08:12:53;;;;;;;27.30;18.02;;;7.90;69.10;;;;;;5051660;28;20473;-60
2022/01/25 08:15:24;;;;;;;27.73;18.95;;;7.80;69.10;;;;;;5061287;28;20859;-60
2022/01/25 08:17:55;;;;;;;26.23;18.73;;;7.80;69.10;;;;;;5050254;28;20587;-60
2022/01/25 08:20:29;;;;;;;25.33;18.63;;;7.80;69.00;;;;;;5048665;28;20703;-61
2022/01/25 08:23:09;;;;;;;26.05;20.17;;;7.90;69.00;;;;;;5048435;28;20110;-60
2022/01/25 08:25:36;;;;;;;28.25;19.70;;;7.90;69.00;;;;;;5056152;28;20053;-61
2022/01/25 08:28:13;;;;;;;24.88;18.63;;;7.90;69.60;;;;;;5047346;28;20053;-60
2022/01/25 08:30:56;;;;;;;23.80;16.42;;;7.90;68.90;;;;;;5036732;28;20064;-61
2022/01/25 08:33:24;;;;;;;25.70;17.95;;;7.90;68.80;;;;;;5044645;28;20048;-59
2022/01/25 08:35:54;;;;;;;29.08;19.02;;;7.90;68.70;;;;;;5055147;28;20072;-60
2022/01/25 08:38:21;;;;;;;26.23;19.73;;;7.90;68.80;;;;;;5048174;28;20072;-60
2022/01/25 08:40:55;;;;;;;24.10;17.30;;;7.90;68.70;;;;;;5051102;28;20045;-60
2022/01/25 08:43:24;;;;;;;26.08;18.67;;;7.90;68.70;;;;;;5054832;28;20473;-61
2022/01/25 08:45:55;;;;;;;28.58;19.45;;;7.90;68.80;;;;;;5058635;28;20136;-61
2022/01/25 08:48:25;;;;;;;29.77;19.60;;;7.90;68.70;;;;;;5067656;28;20052;-61
2022/01/25 08:50:55;;;;;;;30.23;20.25;;;7.90;68.60;;;;;;5047267;28;20053;-60
2022/01/25 08:53:25;;;;;;;26.75;18.88;;;8.00;68.60;;;;;;5059684;28;20044;-60
2022/01/25 08:55:55;;;;;;;28.20;19.75;;;8.00;68.60;;;;;;5063907;28;20063;-58
2022/01/25 08:58:32;;;;;;;24.42;18.02;;;8.00;68.60;;;;;;5045509;28;20470;-60
2022/01/25 09:00:59;;;;;;;29.08;18.88;;;8.00;68.50;;;;;;5042461;28;20164;-60
2022/01/25 09:03:26;;;;;;;23.88;18.15;;;8.00;68.40;;;;;;5055836;28;20443;-61
2022/01/25 09:05:53;;;;;;;27.77;18.65;;;8.00;68.30;;;;;;5051433;28;20132;-60
2022/01/25 09:08:22;;;;;;;27.20;19.08;;;8.00;68.20;;;;;;5067287;28;20411;-60
2022/01/25 09:11:00;;;;;;;27.50;18.67;;;8.00;68.10;;;;;;5056978;28;20053;-60
2022/01/25 09:13:27;;;;;;;24.23;17.98;;;8.00;67.90;;;;;;5048453;28;20044;-60
2022/01/25 09:15:54;;;;;;;29.52;18.40;;;8.00;67.90;;;;;;5055396;28;20098;-60
2022/01/25 09:18:21;;;;;;;22.85;18.05;;;8.00;67.90;;;;;;5046243;28;20073;-60
2022/01/25 09:20:48;;;;;;;22.80;16.58;;;8.10;68.00;;;;;;5060249;28;20044;-60
2022/01/25 09:23:19;;;;;;;25.67;17.42;;;8.10;67.90;;;;;;5056741;28;20103;-61
2022/01/25 09:25:47;;;;;;;16.33;11.98;;;8.10;67.80;;;;;;5047262;28;20081;-60
2022/01/25 09:28:15;;;;;;;24.33;18.02;;;8.10;68.00;;;;;;5045564;28;20072;-60
2022/01/25 09:30:43;;;;;;;26.42;19.35;;;8.20;68.00;;;;;;5056874;28;20104;-60
2022/01/25 09:33:10;;;;;;;32.28;23.27;;;8.10;68.00;;;;;;5066882;28;20052;-60
2022/01/25 09:35:37;;;;;;;30.10;21.17;;;8.10;67.80;;;;;;5056878;28;20033;-60
2022/01/25 09:38:04;;;;;;;27.55;20.30;;;8.20;67.80;;;;;;5052243;28;20389;-60
2022/01/25 09:40:31;;;;;;;24.10;18.13;;;8.20;67.70;;;;;;5061184;28;20120;-61
2022/01/25 09:42:59;;;;;;;27.75;19.25;;;8.20;67.60;;;;;;5068880;28;20504;-60
2022/01/25 09:45:28;;;;;;;29.33;20.00;;;8.20;67.60;;;;;;5052476;28;20104;-60
2022/01/25 09:47:55;;;;;;;28.92;19.30;;;8.20;67.40;;;;;;5044724;28;20057;-60
2022/01/25 09:50:23;;;;;;;28.13;20.55;;;8.20;67.50;;;;;;5062698;28;20750;-60
2022/01/25 09:52:51;;;;;;;27.50;20.85;;;8.20;67.60;;;;;;5061053;28;20076;-58
2022/01/25 09:55:23;;;;;;;30.15;21.20;;;8.20;67.60;;;;;;5046669;28;20049;-58
2022/01/25 09:57:50;;;;;;;29.15;19.73;;;8.30;67.70;;;;;;5051401;28;20071;-59
2022/01/25 10:00:20;;;;;;;24.75;17.55;;;8.30;67.70;;;;;;5056739;28;20115;-57
2022/01/25 10:05:49;;;;;;;24.20;17.73;;;8.30;66.70;;;;;;5051681;28;20098;-57
2022/01/25 10:08:20;;;;;;;25.10;18.67;;;8.30;67.20;;;;;;5046506;28;20044;-58
2022/01/25 10:10:59;;;;;;;24.38;18.33;;;8.40;67.20;;;;;;5057895;28;20126;-59
2022/01/25 10:13:31;;;;;;;23.70;18.60;;;8.40;66.80;;;;;;5055892;28;20040;-59
2022/01/25 10:16:00;;;;;;;;;;;8.40;67.00;;;;;;5055964;28;20083;-58
2022/01/25 10:18:48;;;;;;;21.98;16.30;;;8.50;67.00;;;;;;5061678;28;19920;-59
2022/01/25 10:21:24;;;;;;;28.50;20.75;;;8.50;66.50;;;;;;5070319;28;20458;-59
2022/01/25 10:24:08;;;;;;;34.78;23.52;;;8.50;66.80;;;;;;5046761;28;20052;-58
2022/01/25 10:26:35;;;;;;;40.10;25.55;;;8.50;66.50;;;;;;5061102;28;20076;-58
2022/01/25 10:29:12;;;;;;;36.90;25.77;;;8.50;66.90;;;;;;5070223;28;20511;-57
2022/01/25 10:31:45;;;;;;;39.45;27.15;;;8.50;66.80;;;;;;5056730;28;20046;-59
2022/01/25 10:34:15;;;;;;;40.80;27.50;;;8.50;66.70;;;;;;5050110;28;20044;-59
2022/01/25 10:36:46;;;;;;;38.95;27.80;;;8.50;66.70;;;;;;5060575;28;20049;-58
2022/01/25 10:39:19;;;;;;;38.10;26.30;;;8.50;66.70;;;;;;5050712;28;20111;-58
2022/01/25 10:41:46;;;;;;;34.35;25.17;;;8.60;66.60;;;;;;5045386;28;20064;-59
2022/01/25 10:44:13;;;;;;;38.42;26.00;;;8.50;66.60;;;;;;5058829;28;20451;-59
2022/01/25 10:46:40;;;;;;;39.70;26.48;;;8.50;66.50;;;;;;5061157;28;20116;-59
2022/01/25 10:49:14;;;;;;;38.28;25.88;;;8.60;66.70;;;;;;5069054;28;20075;-57
2022/01/25 10:51:47;;;;;;;37.58;25.13;;;8.60;66.40;;;;;;5057035;28;20057;-58
2022/01/25 10:54:24;;;;;;;43.17;27.15;;;8.60;66.50;;;;;;5056348;28;20040;-59
2022/01/25 10:56:59;;;;;;;36.92;24.45;;;8.60;66.40;;;;;;5060557;28;20033;-58
2022/01/25 10:59:28;;;;;;;31.55;22.88;;;8.60;66.40;;;;;;5068271;28;20044;-59
2022/01/25 11:01:58;;;;;;;33.72;23.05;;;8.60;66.50;;;;;;5052434;28;20048;-59
2022/01/25 11:04:33;;;;;;;33.13;22.60;;;8.60;66.50;;;;;;5048818;28;20049;-58
2022/01/25 11:07:09;;;;;;;28.98;21.58;;;8.60;66.40;;;;;;5054849;28;20045;-58
2022/01/25 11:09:42;;;;;;;30.15;21.05;;;8.70;66.20;;;;;;5048715;28;20068;-58
2022/01/25 11:12:13;;;;;;;31.85;21.85;;;8.70;66.40;;;;;;5046195;28;20087;-58
2022/01/25 11:14:53;;;;;;;31.20;21.70;;;8.60;66.30;;;;;;5045340;28;20057;-58
2022/01/25 11:17:28;;;;;;;27.65;19.35;;;8.70;66.30;;;;;;5054814;28;20045;-57
2022/01/25 11:19:56;;;;;;;24.92;19.75;;;8.70;66.00;;;;;;5065587;28;20054;-58
2022/01/25 11:22:24;;;;;;;27.10;19.17;;;8.70;66.30;;;;;;5047753;28;20532;-59
2022/01/25 11:25:00;;;;;;;28.60;19.95;;;8.70;66.20;;;;;;5058689;28;20052;-58
2022/01/25 11:27:30;;;;;;;26.67;19.67;;;8.70;65.90;;;;;;5048080;28;20053;-59
2022/01/25 11:30:03;;;;;;;28.30;20.30;;;8.80;66.10;;;;;;5044482;28;20041;-58
2022/01/25 11:32:39;;;;;;;26.25;20.35;;;8.80;65.90;;;;;;5062592;28;20037;-58
2022/01/25 11:35:09;;;;;;;26.75;19.88;;;8.90;65.70;;;;;;5067869;28;20064;-58
2022/01/25 11:37:39;;;;;;;26.52;18.08;;;8.90;65.90;;;;;;5056514;28;20037;-57
2022/01/25 11:40:29;;;;;;;24.48;18.48;;;8.90;65.70;;;;;;5059718;28;20464;-58
2022/01/25 11:42:59;;;;;;;24.58;17.35;;;8.90;65.10;;;;;;5050764;28;20056;-58
2022/01/25 11:45:30;;;;;;;25.92;18.58;;;9.00;65.60;;;;;;5048445;28;20084;-59
2022/01/25 11:47:58;;;;;;;25.90;17.65;;;9.00;65.40;;;;;;5048493;28;20500;-59
2022/01/25 11:50:30;;;;;;;26.85;17.98;;;9.10;65.70;;;;;;5051731;28;20048;-58
2022/01/25 11:53:06;;;;;;;27.30;17.83;;;9.00;65.50;;;;;;5048794;28;20045;-59
2022/01/25 11:55:41;;;;;;;28.02;21.00;;;9.10;65.30;;;;;;5048812;28;20056;-58
2022/01/25 11:58:14;;;;;;;27.27;20.83;;;9.10;65.20;;;;;;5052794;28;20075;-58
2022/01/25 12:00:45;;;;;;;30.77;21.70;;;9.10;65.30;;;;;;5042236;28;20548;-58
2022/01/25 12:03:31;;;;;;;29.52;21.67;;;9.10;65.40;;;;;;5035308;28;20041;-58
2022/01/25 12:06:17;;;;;;;29.90;22.05;;;9.10;64.70;;;;;;5051915;28;20045;-58
2022/01/25 12:09:15;;;;;;;31.88;22.38;;;9.10;65.00;;;;;;5050451;28;20095;-58
2022/01/25 12:11:58;;;;;;;29.95;21.42;;;9.10;65.10;;;;;;5057048;28;20144;-58
2022/01/25 12:14:29;;;;;;;31.92;21.60;;;9.10;65.10;;;;;;5047585;28;20052;-59
2022/01/25 12:16:58;;;;;;;27.27;20.08;;;9.10;65.10;;;;;;5050288;28;20044;-59
2022/01/25 12:19:33;;;;;;;34.50;22.15;;;9.10;65.00;;;;;;5056603;28;20123;-58
2022/01/25 12:22:06;;;;;;;31.08;23.10;;;9.10;64.60;;;;;;5059819;28;20079;-59
2022/01/25 12:25:15;;;;;;;36.28;23.83;;;9.10;64.80;;;;;;5061692;28;20462;-59
2022/01/25 12:27:56;;;;;;;32.67;22.10;;;9.10;64.40;;;;;;5046899;28;20541;-58
2022/01/25 12:30:26;;;;;;;30.27;21.27;;;9.10;65.00;;;;;;5049610;28;20115;-58
2022/01/25 12:33:02;;;;;;;37.05;22.48;;;9.10;64.80;;;;;;5048798;28;20092;-58
2022/01/25 12:35:36;;;;;;;35.30;24.02;;;9.10;64.80;;;;;;5029053;28;20041;-59
2022/01/25 12:38:05;;;;;;;33.88;23.10;;;9.10;64.80;;;;;;5049739;28;20064;-59
2022/01/25 12:40:38;;;;;;;33.97;22.65;;;9.10;64.80;;;;;;5047508;28;20065;-59
2022/01/25 12:43:10;;;;;;;33.05;23.98;;;9.10;64.60;;;;;;5053139;28;20120;-59
2022/01/25 12:45:47;;;;;;;34.95;23.45;;;9.10;64.60;;;;;;5053296;28;20044;-58
2022/01/25 12:48:41;;;;;;;40.58;24.95;;;9.10;64.50;;;;;;5058893;28;20412;-58
2022/01/25 12:51:11;;;;;;;30.33;21.80;;;9.10;64.40;;;;;;5038638;28;20049;-59
2022/01/25 12:53:44;;;;;;;38.08;25.58;;;9.10;64.40;;;;;;5046924;28;20526;-59
2022/01/25 12:56:18;;;;;;;35.35;23.38;;;9.10;64.30;;;;;;5051552;28;20048;-60
2022/01/25 12:58:50;;;;;;;36.45;24.27;;;9.00;64.10;;;;;;5051357;28;20504;-60
2022/01/25 13:01:21;;;;;;;36.33;24.00;;;9.10;64.20;;;;;;5048054;28;20095;-59
2022/01/25 13:03:55;;;;;;;33.97;23.23;;;9.00;64.10;;;;;;5041760;28;20049;-61
2022/01/25 13:06:25;;;;;;;35.33;23.95;;;9.00;64.30;;;;;;5044430;28;20045;-57
2022/01/25 13:09:14;;;;;;;34.42;22.80;;;9.00;64.40;;;;;;5047318;28;20152;-58
2022/01/25 13:15:05;;;;;;;33.80;21.58;;;9.00;64.40;;;;;;5049645;28;20131;-60
2022/01/25 13:17:11;;;;;;;37.33;24.33;;;9.00;64.50;;;;;;5042017;28;20397;-60
2022/01/25 13:19:58;;;;;;;34.78;22.92;;;8.90;64.40;;;;;;5050163;28;20049;-61
2022/01/25 13:22:40;;;;;;;33.92;23.38;;;8.90;64.40;;;;;;5049731;28;20045;-59
2022/01/25 13:27:53;;;;;;;37.92;25.33;;;8.90;64.40;;;;;;5067157;28;20122;-60
2022/01/25 13:30:42;;;;;;;39.65;24.45;;;9.00;64.30;;;;;;5047260;28;20037;-59
2022/01/25 13:33:11;;;;;;;35.58;24.88;;;9.00;64.20;;;;;;5061880;28;20462;-60
2022/01/25 13:35:46;;;;;;;33.95;24.40;;;9.00;64.50;;;;;;5066848;28;20072;-58
2022/01/25 13:38:18;;;;;;;33.13;23.00;;;8.90;64.40;;;;;;5059512;28;20040;-59
2022/01/25 13:40:58;;;;;;;33.38;22.48;;;9.00;64.40;;;;;;5050384;28;20493;-61
2022/01/25 13:46:13;;;;;;;33.50;23.00;;;9.00;64.10;;;;;;5064154;28;20076;-60
2022/01/25 13:48:41;;;;;;;30.23;22.30;;;9.00;64.00;;;;;;5066925;28;20516;-58
2022/01/25 13:51:20;;;;;;;34.35;23.05;;;9.10;64.30;;;;;;5071921;28;20064;-60
2022/01/25 13:53:56;;;;;;;32.42;22.90;;;9.10;64.10;;;;;;5055122;28;20052;-60
2022/01/25 13:56:26;;;;;;;36.95;24.02;;;9.10;63.90;;;;;;5048751;28;20065;-59
2022/01/25 13:58:53;;;;;;;39.80;25.35;;;9.10;64.00;;;;;;5068728;28;20047;-58
2022/01/25 14:01:24;;;;;;;37.03;24.13;;;9.10;64.10;;;;;;5059101;28;20082;-58
2022/01/25 14:03:58;;;;;;;35.45;23.25;;;9.20;63.90;;;;;;5055321;28;20045;-60
2022/01/25 14:06:29;;;;;;;37.55;23.42;;;9.20;63.60;;;;;;5050028;28;20059;-56
2022/01/25 14:09:25;;;;;;;35.47;23.42;;;9.20;63.80;;;;;;5048285;28;20037;-60
2022/01/25 14:25:38;;;;;;;34.05;21.08;;;9.20;63.50;;;;;;5057740;28;20106;-61
2022/01/25 14:28:14;;;;;;;32.65;21.25;;;9.20;62.90;;;;;;5053540;28;20049;-60
2022/01/25 14:30:44;;;;;;;30.63;20.23;;;9.20;63.20;;;;;;5052029;28;20064;-60
2022/01/25 14:33:14;;;;;;;34.83;21.80;;;9.20;63.60;;;;;;5050015;28;20116;-59
2022/01/25 14:35:46;;;;;;;30.60;21.77;;;9.20;63.10;;;;;;5059946;28;20041;-60
2022/01/25 14:38:25;;;;;;;31.33;20.42;;;9.20;62.70;;;;;;5043273;28;20146;-60
2022/01/25 14:41:11;;;;;;;29.80;20.08;;;9.20;62.50;;;;;;5052118;28;20228;-60
2022/01/25 14:43:46;;;;;;;30.60;21.17;;;9.20;62.60;;;;;;5045890;28;20091;-60
2022/01/25 14:46:22;;;;;;;33.60;22.20;;;9.10;62.60;;;;;;5054816;28;20060;-60
2022/01/25 14:49:03;;;;;;;29.45;20.50;;;9.20;62.70;;;;;;5045712;28;20040;-60
2022/01/25 14:51:46;;;;;;;32.88;21.52;;;9.10;62.50;;;;;;5056390;28;20053;-59
2022/01/25 14:54:16;;;;;;;;;;;9.10;62.30;;;;;;5048072;28;20712;-60
2022/01/25 14:56:49;;;;;;;34.05;20.23;;;9.10;62.70;;;;;;5052084;28;19989;-60
2022/01/25 14:59:27;;;;;;;33.60;22.55;;;9.10;63.00;;;;;;5042559;28;20083;-59